Latest Coastal Weather Observations for Port Fairy

IDV60701

Issued at 7:05 pm EST Saturday 26 July 2014 (issued every 10 minutes, with the page automatically refreshed every 10 minutes)

About coastal observations | Map of coastal stations | Coastal observations for VIC | Marine services | Other Formats
Station Details ID: 090175 Name: PORT FAIRY AWS Lat: -38.39 Lon: 142.23 Height: 10.0 m
Data from the previous 72 hours. | See also: Recent months at Port Fairy
Date/Time
EST
Temp

°C
Wind Pressure Rain
since 9am
mm
Weather Cloud Vis
km
Sea
Height
m
Swell
Dir
 
Speed
knots
Gust
knots
hPa Trend Height
m
Period
s
Dir
26/07:00pm 10.1 NW 2 3 1025.3 - 0.0 - - - - - - -
26/06:30pm 11.3 W 5 8 1025.1 - 0.0 - - - - - - -
26/06:00pm 11.3 W 5 8 1024.9 - 0.0 - - - - - - -
26/05:30pm 12.3 W 8 12 1024.8 - 0.0 - - - - - - -
26/05:00pm 12.9 WSW 11 14 1024.7 - 0.0 - - - - - - -
26/04:30pm 13.5 W 11 15 1024.4 - 0.0 - - - - - - -
26/04:00pm 13.3 W 12 17 1024.2 - 0.0 - - - - - - -
26/03:30pm 13.9 W 13 17 1023.9 - 0.0 - - - - - - -
26/03:00pm 14.2 W 13 17 1023.9 - 0.0 - - - - - - -
26/02:30pm 14.2 W 13 17 1023.5 - 0.0 - - - - - - -
26/02:00pm 14.2 W 13 17 1023.5 - 0.0 - - - - - - -
26/01:30pm 14.6 W 13 18 1023.2 - 0.0 - - - - - - -
26/01:00pm 13.9 W 14 18 1023.6 - 0.0 - - - - - - -
26/12:30pm 13.8 W 15 20 1023.9 - 0.0 - - - - - - -
26/12:00pm 13.7 W 16 23 1024.2 - 0.0 - - - - - - -
26/11:30am 14.2 W 15 20 1024.1 - 0.0 - - - - - - -
26/11:00am 13.7 W 13 18 1024.1 - 0.0 - - - - - - -
26/10:30am 13.1 W 13 17 1024.0 - 0.0 - - - - - - -
26/10:00am 13.4 W 14 19 1023.9 - 0.0 - - - - - - -
26/09:30am 13.0 W 12 19 1023.5 - 0.0 - - - - - - -
26/09:00am 11.6 WNW 6 10 1023.5 - 2.4 - - - - - - -
26/08:30am 10.1 NW 6 10 1022.9 - 2.4 - - - - - - -
26/08:00am 9.5 NW 5 9 1022.7 - 2.4 - - - - - - -
26/07:30am 9.4 NNW 6 9 1022.4 - 2.4 - - - - - - -
26/07:00am 9.6 NW 6 9 1022.0 - 2.4 - - - - - - -
26/06:30am 9.7 NW 5 8 1021.5 - 2.4 - - - - - - -
26/06:00am 10.1 NW 6 10 1021.1 - 2.4 - - - - - - -
26/05:30am 10.5 NW 7 10 1020.9 - 2.4 - - - - - - -
26/05:00am 10.6 NW 6 9 1020.7 - 2.4 - - - - - - -
26/04:30am 10.7 NW 7 10 1020.3 - 2.4 - - - - - - -
26/04:00am 10.8 NW 6 11 1020.2 - 2.4 - - - - - - -
26/03:30am 11.0 NW 6 11 1020.0 - 2.4 - - - - - - -
26/03:00am 12.4 W 9 15 1019.9 - 2.4 - - - - - - -
26/02:30am 12.6 W 9 13 1019.7 - 2.4 - - - - - - -
26/02:00am 12.6 W 10 14 1019.5 - 2.4 - - - - - - -
26/01:30am 12.8 W 11 19 1019.2 - 2.4 - - - - - - -
26/01:00am 12.7 W 11 17 1019.1 - 2.4 - - - - - - -
26/12:30am 12.7 W 10 15 1019.0 - 2.4 - - - - - - -
26/12:00am 12.7 W 13 18 1018.9 - 2.4 Recent precip. - - - - - -
 
Date/Time
EST
Temp

°C
Wind Pressure Rain
since 9am
mm
Weather Cloud Vis
km
Sea
Height
m
Swell
Dir
 
Speed
knots
Gust
knots
hPa Trend Height
m
Period
s
Dir
25/11:30pm 12.5 W 10 14 1018.7 - 2.4 - - - - - - -
25/11:00pm 12.6 W 10 17 1018.6 - 2.2 - - - - - - -
25/10:30pm 11.9 WNW 6 10 1018.5 - 1.6 - - - - - - -
25/10:00pm 11.7 NW 4 7 1018.3 - 1.6 - - - - - - -
25/09:30pm 11.7 NW 6 11 1018.0 - 1.6 - - - - - - -
25/09:00pm 11.7 NW 7 12 1017.8 - 1.4 Recent precip. - - - - - -
25/08:30pm 11.8 NW 8 11 1017.7 - 1.0 - - - - - - -
25/08:00pm 11.7 NW 7 12 1017.4 - 1.0 - - - - - - -
25/07:30pm 12.1 NNW 8 11 1016.9 - 0.8 - - - - - - -
25/07:00pm 12.1 NW 6 10 1016.6 - 0.2 - - - - - - -
25/06:30pm 12.0 NW 6 10 1016.3 - 0.2 - - - - - - -
25/06:00pm 12.6 WNW 7 12 1015.9 - 0.2 - - - - - - -
25/05:30pm 12.7 WNW 9 14 1015.5 - 0.2 - - - - - - -
25/05:00pm 13.2 W 11 17 1015.2 - 0.2 - - - - - - -
25/04:30pm 13.6 W 10 18 1014.9 - 0.2 - - - - - - -
25/04:00pm 14.3 W 13 18 1014.6 - 0.2 - - - - - - -
25/03:30pm 13.9 WNW 9 17 1014.4 - 0.2 - - - - - - -
25/03:00pm 13.3 WNW 8 11 1014.0 - 0.2 - - - - - - -
25/02:30pm 13.7 WNW 7 12 1013.8 - 0.2 - - - - - - -
25/02:00pm 13.8 WNW 8 13 1013.4 - 0.2 - - - - - - -
25/01:30pm 13.8 NW 8 13 1013.5 - 0.0 - - - - - - -
25/01:00pm 14.6 NW 9 14 1013.5 - 0.0 - - - - - - -
25/12:30pm 14.9 NNW 9 16 1013.7 - 0.0 - - - - - - -
25/12:00pm 13.6 NNW 8 14 1013.8 - 0.0 - - - - - - -
25/11:30am 13.4 NNW 8 14 1013.8 - 0.0 - - - - - - -
25/11:00am 13.5 NNW 9 15 1013.8 - 0.0 - - - - - - -
25/10:30am 12.8 NNW 8 13 1013.6 - 0.0 - - - - - - -
25/10:00am 12.8 NNW 10 14 1013.2 - 0.0 - - - - - - -
25/09:30am 12.2 NNW 7 14 1013.0 - 0.0 - - - - - - -
25/09:00am 11.9 N 8 13 1012.6 - 4.8 Recent precip. - - - - - -
25/08:30am 10.7 N 6 9 1012.4 - 4.8 - - - - - - -
25/08:00am 10.4 N 6 8 1011.9 - 4.6 - - - - - - -
25/07:30am 10.7 N 5 9 1011.7 - 4.6 - - - - - - -
25/07:00am 10.9 N 5 7 1011.4 - 4.6 - - - - - - -
25/06:30am 10.8 N 6 10 1011.1 - 4.6 - - - - - - -
25/06:00am 10.9 NNE 6 8 1010.7 - 4.4 - - - - - - -
25/05:30am 11.0 N 6 8 1010.5 - 4.4 - - - - - - -
25/05:00am 11.0 N 6 8 1010.3 - 4.4 - - - - - - -
25/04:30am 11.0 N 6 10 1010.2 - 4.2 - - - - - - -
25/04:00am 10.8 N 6 9 1010.2 - 4.2 - - - - - - -
25/03:30am 10.5 NNE 6 9 1010.2 - 4.2 - - - - - - -
25/03:00am 10.2 NNE 5 8 1010.2 - 4.2 - - - - - - -
25/02:30am 10.1 NNE 7 11 1010.0 - 4.2 - - - - - - -
25/02:00am 10.2 NNE 7 10 1010.2 - 4.2 - - - - - - -
25/01:30am 10.3 NNE 7 11 1009.9 - 4.2 - - - - - - -
25/01:00am 10.3 NNE 7 10 1010.0 - 4.2 - - - - - - -
25/12:30am 10.2 NNE 7 11 1010.2 - 4.2 - - - - - - -
25/12:00am 10.4 NNE 7 11 1010.2 - 4.2 - - - - - - -
 
Date/Time
EST
Temp

°C
Wind Pressure Rain
since 9am
mm
Weather Cloud Vis
km
Sea
Height
m
Swell
Dir
 
Speed
knots
Gust
knots
hPa Trend Height
m
Period
s
Dir
24/11:30pm 10.6 NNE 7 12 1010.4 - 4.2 - - - - - - -
24/11:00pm 10.6 NNE 7 10 1010.6 - 4.2 - - - - - - -
24/10:30pm 10.6 NNE 6 9 1010.6 - 4.2 - - - - - - -
24/10:00pm 10.7 NNE 7 11 1010.5 - 4.2 - - - - - - -
24/09:30pm 10.9 NNE 8 12 1010.6 - 4.0 - - - - - - -
24/09:00pm 10.9 NNE 7 10 1010.7 - 4.0 - - - - - - -
24/08:30pm 11.0 NE 8 12 1010.7 - 4.0 - - - - - - -
24/08:00pm 11.2 NE 6 9 1010.6 - 4.0 - - - - - - -
24/07:30pm 11.2 NE 7 10 1010.5 - 4.0 - - - - - - -
24/07:00pm 11.6 NE 7 13 1010.3 - 3.4 - - - - - - -
24/06:30pm 11.7 ENE 6 11 1010.0 - 3.4 - - - - - - -
24/06:00pm 11.9 ENE 8 13 1009.7 - 3.4 - - - - - - -
24/05:30pm 11.9 ENE 9 14 1009.8 - 3.4 - - - - - - -
24/05:00pm 11.7 ENE 9 15 1009.7 - 3.4 - - - - - - -
24/04:30pm 11.7 ENE 11 17 1009.6 - 3.4 - - - - - - -
24/04:00pm 11.6 ENE 10 16 1009.6 - 3.4 - - - - - - -
24/03:30pm 11.4 ENE 10 17 1009.7 - 3.4 - - - - - - -
24/03:00pm 11.4 ENE 9 15 1009.8 - 3.4 - - - - - - -
24/02:30pm 11.2 ENE 9 14 1009.8 - 3.4 - - - - - - -
24/02:00pm 11.1 ENE 7 11 1010.1 - 3.4 - - - - - - -
24/01:30pm 10.8 ENE 9 16 1010.6 - 3.4 - - - - - - -
24/01:00pm 10.6 ENE 10 15 1011.2 - 3.4 - - - - - - -
24/12:30pm 10.3 ENE 10 16 1011.7 - 3.4 - - - - - - -
24/12:00pm 9.9 ENE 9 14 1012.3 - 3.4 Recent precip. - - - - - -
24/11:30am 9.6 ENE 9 15 1012.8 - 3.0 - - - - - - -
24/11:00am 9.5 NE 9 14 1013.4 - 2.2 - - - - - - -
24/10:30am 9.4 NE 8 14 1013.6 - 1.2 - - - - - - -
24/10:00am 9.3 NE 9 13 1013.9 - 0.4 - - - - - - -
24/09:30am 9.2 NE 8 12 1014.1 - 0.2 - - - - - - -
24/09:00am 9.0 NE 6 10 1014.0 - 5.0 Rain - - - - - -
24/08:30am 8.9 NE 7 11 1013.9 - 4.4 - - - - - - -
24/08:00am 8.7 NE 7 11 1014.0 - 4.0 - - - - - - -
24/07:30am 8.6 NE 7 11 1013.9 - 3.6 - - - - - - -
24/07:00am 8.6 NE 6 9 1013.9 - 3.2 - - - - - - -
24/06:30am 8.6 NE 6 8 1013.7 - 2.8 - - - - - - -
24/06:00am 8.4 NE 5 7 1013.7 - 2.2 Recent precip. - - - - - -
24/05:30am 8.2 NNE 6 8 1013.9 - 2.0 - - - - - - -
24/05:00am 8.4 NE 8 13 1014.2 - 1.6 - - - - - - -
24/04:30am 8.5 NNE 8 13 1014.3 - 1.4 - - - - - - -
24/04:00am 8.4 NNE 8 13 1013.9 - 0.2 - - - - - - -
24/03:30am 8.1 NNE 6 9 1014.1 - 0.2 - - - - - - -
24/03:00am 8.2 NE 6 10 1014.5 - 0.0 - - - - - - -
24/02:30am 7.7 NNE 8 13 1015.1 - 0.0 - - - - - - -
24/02:00am 7.5 NNE 7 10 1015.3 - 0.0 - - - - - - -
24/01:30am 7.3 NNE 7 11 1015.5 - 0.0 - - - - - - -
24/01:00am 7.3 NNE 7 11 1015.5 - 0.0 - - - - - - -
24/12:30am 7.2 NNE 7 10 1015.7 - 0.0 - - - - - - -
24/12:00am 7.3 NE 8 12 1015.9 - 0.0 - - - - - - -
 
Date/Time
EST
Temp

°C
Wind Pressure Rain
since 9am
mm
Weather Cloud Vis
km
Sea
Height
m
Swell
Dir
 
Speed
knots
Gust
knots
hPa Trend Height
m
Period
s
Dir
23/11:30pm 7.2 NNE 8 11 1016.3 - 0.0 - - - - - - -
23/11:00pm 7.2 NNE 7 12 1016.4 - 0.0 - - - - - - -
23/10:30pm 7.1 NNE 8 12 1016.7 - 0.0 - - - - - - -
23/10:00pm 7.3 NNE 8 12 1017.0 - 0.0 - - - - - - -
23/09:30pm 7.1 NNE 6 10 1017.3 - 0.0 - - - - - - -
23/09:00pm 7.4 NNE 6 10 1017.6 - 0.0 - - - - - - -
23/08:30pm 7.9 NNE 7 10 1017.7 - 0.0 - - - - - - -
23/08:00pm 8.2 NNE 5 8 1017.7 - 0.0 - - - - - - -
23/07:30pm 8.4 NNE 7 10 1017.7 - 0.0 - - - - - - -

Other Formats:

Comma delimited format used in spreadsheet applications
http://www.bom.gov.au/fwo/IDV60701/IDV60701.94830.axf

JavaScript Object Notation format (JSON) in row-major order
http://www.bom.gov.au/fwo/IDV60701/IDV60701.94830.json